Groton, Connecticut
Current Conditions -  °F | °C
As of 6:07 AM on Friday 24 Oct 2014 (Local Time) from KGON Reporting Station
Overcast Overcast  
Wind Chill: 50°   Ceiling: 7000
Heat Index: 50°   Visibility: 10mi
Dew Point: 46°   Wind: 12mph
Humidity: 86%   Direction: 340°NNW
Pressure: 29.71"   Gusts: 21mph
Location:  41.35°N, 72.07°W
Report Text: KGON 241007Z AUTO 34010G18KT 10SM FEW026 OVC070 10/08 A2971 RMK AO2 T01000078
Loading
Personal Weather Stations






























Interactive Weather Map New forecast layout! Learn more

10-Day Weather Forecast

Advertisements
Track Severe Weather on mobile